Rochester, NY (14624)

6:34 AM EST on January 18, 2017 (GMT -0500)
Spencerport/North Chili | | Change Station
Active Advisory: Small Craft Advisory

Elev 595 ft 43.12 °N, 77.73 °W | Updated 42 seconds ago

Overcast
Overcast
37.9 °F
Feels Like 38 °F
N
1.0
Wind Variable Wind from WSW
Gusts 12.0 mph

Today
High -- | Low -- °F
--% Chance of Precip.
Yesterday
High -- | Low -- °F
Precip. -- in
Pressure 29.89 in
Visibility 10.0 miles
Clouds Overcast 800 ft
Windchill 38 °F
Dew Point 37 °F
Humidity 96%
Rainfall 0.88 in
Snow Depth Not available.
7:37 AM 5:05 PM
Waning Gibbous, 64% visible
METAR KROC 181054Z 27011KT 10SM OVC008 04/03 A2987 RMK AO2 RAE21 SLP122 P0001 T00390028
Pressure 29.89 in
Visibility 10.0 miles
Clouds Overcast 800 ft
Windchill 38 °F
Dew Point 37 °F
Humidity 96%
Rainfall 0.88 in
Snow Depth Not available.
7:37 AM 5:05 PM
Waning Gibbous, 64% visible
METAR KROC 181054Z 27011KT 10SM OVC008 04/03 A2987 RMK AO2 RAE21 SLP122 P0001 T00390028

Get Your Daily Forecast Email!

Thanks for signing up!

Be on the lookout for a verification email in your inbox.

You'll start receiving the daily forecast at 8 AM.

×

10-Day Weather Forecast

Almanac

Astronomy

Jan. 18, 2017 Rise Set
Actual Time
Civil Twilight
Nautical Twilight
Astronomical Twilight
Moon
Length of Visible Light
Length of Day
Tomorrow will be .
, % of the Moon is Illuminated

Today's Extremes

State Highs State Lows

Community

WunderPhotos

Upload Photos

1,962,540 photos uploaded!

WunderBlog® & News

Nearby

Air Quality

  Air Quality AQ Index Pollutant
Not available.

Snow Depth

Station Depth Elevation

Earthquake Activity

City Distance Mag. Time & Date
Minimum magnitude displayed is 2.5.

Coastal Water Temperatures

Place Temperature

Stations

Nearby Weather Stations

Station Location Temp. Windchill Dew Point Humidity Wind Precip. Elev Updated Type
                   

Watches & Warnings

Small Craft Advisory
Issued: 3:14 AM EST Jan. 18, 2017 – National Weather Service

... Small Craft Advisory in effect from 1 PM this afternoon to
1 am EST Thursday...

The National Weather Service in Buffalo has issued a Small Craft
Advisory... which is in effect from 1 PM this afternoon to 1 am
EST Thursday.

* Winds... west 15 to 20 knots.

* Waves... 3 to 5 feet.

Precautionary/preparedness actions...

A Small Craft Advisory means that wind speeds of 18 to 33 knots
and/or waves averaging 4 feet or more are expected to produce
hazardous wave conditions to small craft. Inexperienced
mariners... especially those operating smaller vessels... should
avoid navigating in these conditions.